メインページ
METAR-TAF:

METAR-TAF

空港 :

シカゴ, イリノイ州, アメリカ合衆国

シカゴ・オヘア国際空港

緯度: 41-58-47N, 経度: 087-54-16W, 海抜: 203m

現時点の気象観測

当レポートは29分前の22:51(UTC)に作成
の風 9kt
気温 23°C
湿度 53%
気圧 1011 hPa
視程: 16.1km
高度3500ftの雲はほとんどない
高度15000ftの雲はほとんどない
高度25000ftの雲は散在している

METAR: KORD 272251Z 10009KT 10SM FEW035 FEW150 SCT250 23/13 A2985 RMK AO2 SLP106 T02280133

時間: 18:20 (23:20 UTC)

予報

当レポートは2時間15分前の21:05(UTC)に作成
予報は27日の 21時(UTC)から 28日の 24時(UTC)まで有効
の風 10kt
視程: 10km
高度3500ftの雲はほとんどない
高度15000ftの千切れ雲あり
28日の 0200時(UTC)から
の風 5kt
視程: 10km
高度8000ftの雲は散在している
高度20000ftの千切れ雲あり
28日の 1600時(UTC)から
北西の風 8kt
視程: 9.7km
高度2500ftの曇り
弱いにわか雨
確率 30%
28日の 16時(UTC)から 28日の 18時(UTC)まで
視程: 6.4km
高度1500ftの曇り, 積乱雲.
激しい雷雨, 雨
28日の 2200時(UTC)から
西/北西の風 10kt
視程: 10km
高度8000ftの曇り

TAF: KORD 272105Z 2721/2824 08010KT P6SM FEW035 BKN150 FM280200 10005KT P6SM SCT080 BKN200 FM281600 31008KT 6SM -SHRA OVC025 PROB30 2816/2818 4SM TSRA OVC015CB FM282200 30010KT P6SM OVC080

4,000以上の空港の気象観測と天気予報(METAR報とTAF報)

利用可能な観測所は地図上に黄色い丸と赤い丸で示す。

丸の上にカーソルを重ねると観測所名を参照できる。

次にクリックすると気象観測と天気予報を参照できる。

マップの切り替え:黒色「×」印の緑ボタンをクリックして拡大、「-」印の緑ボタンをクリックして縮小、緑色の三角印をクリックして隣りの地図に切り替え


METAR-TAF: